createdAt,value
2023-05-19T00:01:09.162Z,13.00
2023-05-19T00:03:40.630Z,13.00
2023-05-19T00:06:10.457Z,13.00
2023-05-19T00:08:37.925Z,13.00
2023-05-19T00:11:04.781Z,13.00
2023-05-19T00:13:31.581Z,13.10
2023-05-19T00:15:58.431Z,13.10
2023-05-19T00:18:25.104Z,13.10
2023-05-19T00:20:52.519Z,13.10
2023-05-19T00:23:19.297Z,13.10
2023-05-19T00:25:46.010Z,13.10
2023-05-19T00:28:12.813Z,13.00
2023-05-19T00:30:39.477Z,13.00
2023-05-19T00:33:06.277Z,13.00
2023-05-19T00:35:33.499Z,13.00
2023-05-19T00:38:00.363Z,13.00
2023-05-19T00:40:27.141Z,13.00
2023-05-19T00:42:53.979Z,13.00
2023-05-19T00:45:20.954Z,13.00
2023-05-19T00:47:48.941Z,13.10
2023-05-19T00:50:15.710Z,13.10
2023-05-19T00:52:42.418Z,13.00
2023-05-19T00:55:09.809Z,12.90
2023-05-19T00:57:36.662Z,12.90
2023-05-19T01:00:04.232Z,12.90
2023-05-19T01:02:32.477Z,12.90
2023-05-19T01:04:59.350Z,12.90
2023-05-19T01:07:26.050Z,12.90
2023-05-19T01:09:52.799Z,12.80
2023-05-19T01:12:19.651Z,12.80
2023-05-19T01:14:46.427Z,12.80
2023-05-19T01:17:16.346Z,12.70
2023-05-19T01:19:43.543Z,12.70
2023-05-19T01:22:23.635Z,12.70
2023-05-19T01:25:05.238Z,12.70
2023-05-19T01:27:35.053Z,12.80
2023-05-19T01:30:11.201Z,12.80
2023-05-19T01:32:38.307Z,12.80
2023-05-19T01:35:05.295Z,12.90
2023-05-19T01:37:32.090Z,12.90
2023-05-19T01:39:58.822Z,12.90
2023-05-19T01:42:25.580Z,12.90
2023-05-19T01:44:52.292Z,12.90
2023-05-19T01:47:19.003Z,12.90
2023-05-19T01:49:46.306Z,12.90
2023-05-19T01:52:12.977Z,12.90
2023-05-19T01:54:39.721Z,13.00
2023-05-19T01:57:06.502Z,13.00
2023-05-19T01:59:47.534Z,13.00
2023-05-19T02:02:43.777Z,13.00
2023-05-19T02:05:14.260Z,12.90
2023-05-19T02:07:44.636Z,12.90
2023-05-19T02:10:19.464Z,12.90
2023-05-19T02:12:46.113Z,13.00
2023-05-19T02:15:22.413Z,13.00
2023-05-19T02:17:51.814Z,12.90
2023-05-19T02:20:18.863Z,13.00
2023-05-19T02:22:45.724Z,13.00
2023-05-19T02:25:12.493Z,13.00
2023-05-19T02:27:39.264Z,13.00
2023-05-19T02:30:06.524Z,13.00
2023-05-19T02:32:33.352Z,13.00
2023-05-19T02:35:00.198Z,13.00
2023-05-19T02:37:31.187Z,13.00
2023-05-19T02:39:58.157Z,13.00
2023-05-19T02:42:24.878Z,13.00
2023-05-19T02:44:52.570Z,12.90
2023-05-19T02:47:19.283Z,12.90
2023-05-19T02:49:46.080Z,12.90
2023-05-19T02:52:12.828Z,12.90
2023-05-19T02:54:39.486Z,12.90
2023-05-19T02:57:06.932Z,12.90
2023-05-19T02:59:33.745Z,12.80
2023-05-19T03:02:01.506Z,12.80
2023-05-19T03:04:29.885Z,12.90
2023-05-19T03:06:57.407Z,12.80
2023-05-19T03:09:24.170Z,12.90
2023-05-19T03:11:51.036Z,12.90
2023-05-19T03:14:18.600Z,13.00
2023-05-19T03:16:45.550Z,13.00
2023-05-19T03:19:12.636Z,13.00
2023-05-19T03:21:39.507Z,13.10
2023-05-19T03:24:06.741Z,13.00
2023-05-19T03:26:33.550Z,13.00
2023-05-19T03:29:01.035Z,12.90
2023-05-19T03:31:27.896Z,12.90
2023-05-19T03:33:54.664Z,12.90
2023-05-19T03:36:22.190Z,12.90
2023-05-19T03:38:48.991Z,12.80
2023-05-19T03:41:15.693Z,12.80
2023-05-19T03:43:42.417Z,12.70
2023-05-19T03:46:09.213Z,12.80
2023-05-19T03:48:36.094Z,12.80
2023-05-19T03:51:04.456Z,12.80
2023-05-19T03:53:31.187Z,12.80
2023-05-19T03:55:58.011Z,12.80
2023-05-19T03:58:24.988Z,12.80
2023-05-19T04:00:51.690Z,12.80
2023-05-19T04:03:18.562Z,12.90
2023-05-19T04:05:45.350Z,12.90
2023-05-19T04:08:12.120Z,13.00
2023-05-19T04:10:38.876Z,13.10
2023-05-19T04:13:05.629Z,13.10
2023-05-19T04:15:32.386Z,13.10
2023-05-19T04:17:59.284Z,13.20
2023-05-19T04:20:26.040Z,13.20
2023-05-19T04:22:52.744Z,13.10
2023-05-19T04:25:20.268Z,13.10
2023-05-19T04:27:48.259Z,13.10
2023-05-19T04:30:22.081Z,13.20
2023-05-19T04:32:51.021Z,13.20
2023-05-19T04:35:17.909Z,13.20
2023-05-19T04:37:46.054Z,13.20
2023-05-19T04:40:13.123Z,13.20
2023-05-19T04:42:42.831Z,13.20
2023-05-19T04:45:09.817Z,13.20
2023-05-19T04:47:39.346Z,13.20
2023-05-19T04:50:07.448Z,13.20
2023-05-19T04:52:34.181Z,13.20
2023-05-19T04:55:01.272Z,13.30
2023-05-19T04:57:27.994Z,13.40
2023-05-19T04:59:59.920Z,13.40
2023-05-19T05:02:29.623Z,13.40
2023-05-19T05:04:56.730Z,13.40
2023-05-19T05:07:23.711Z,13.50
2023-05-19T05:09:50.549Z,13.50
2023-05-19T05:12:21.249Z,13.60
2023-05-19T05:14:48.051Z,13.60
2023-05-19T05:17:14.918Z,13.50
2023-05-19T05:19:41.813Z,13.50
2023-05-19T05:22:08.749Z,13.50
2023-05-19T05:24:35.622Z,13.60
2023-05-19T05:27:02.304Z,13.70
2023-05-19T05:29:29.076Z,13.80
2023-05-19T05:31:56.003Z,13.90
2023-05-19T05:34:22.663Z,14.00
2023-05-19T05:36:49.360Z,14.10
2023-05-19T05:39:16.079Z,14.10
2023-05-19T05:41:42.742Z,14.10
2023-05-19T05:44:09.465Z,14.20
2023-05-19T05:46:36.231Z,14.30
2023-05-19T05:49:03.076Z,14.50
2023-05-19T05:51:29.991Z,14.50
2023-05-19T05:53:56.749Z,14.60
2023-05-19T05:56:23.576Z,14.70
2023-05-19T05:58:50.738Z,14.80
2023-05-19T06:01:17.965Z,14.80
2023-05-19T06:03:45.130Z,14.90
2023-05-19T06:06:12.044Z,14.90
2023-05-19T06:08:38.834Z,14.80
2023-05-19T06:11:09.367Z,14.60
2023-05-19T06:13:36.336Z,14.50
2023-05-19T06:16:03.262Z,14.40
2023-05-19T06:18:30.065Z,14.40
2023-05-19T06:20:56.786Z,14.50
2023-05-19T06:23:23.992Z,14.40
2023-05-19T06:25:50.784Z,14.40
2023-05-19T06:28:17.574Z,14.30
2023-05-19T06:30:44.315Z,14.30
2023-05-19T06:33:11.157Z,14.50
2023-05-19T06:35:38.023Z,14.60
2023-05-19T06:38:04.703Z,14.70
2023-05-19T06:40:31.680Z,14.70
2023-05-19T06:42:58.580Z,14.70
2023-05-19T06:45:25.495Z,14.70
2023-05-19T06:47:52.300Z,14.70
2023-05-19T06:50:19.113Z,14.70
2023-05-19T06:52:47.151Z,14.60
2023-05-19T06:55:13.814Z,14.50
2023-05-19T06:57:40.646Z,14.40
2023-05-19T07:00:11.534Z,14.50
2023-05-19T07:02:38.798Z,14.50
2023-05-19T07:05:05.870Z,14.50
2023-05-19T07:07:35.706Z,14.40
2023-05-19T07:10:02.444Z,14.40
2023-05-19T07:12:29.132Z,14.50
2023-05-19T07:14:55.848Z,14.60
2023-05-19T07:17:22.834Z,14.60
2023-05-19T07:19:49.606Z,14.60
2023-05-19T07:22:16.389Z,14.70
2023-05-19T07:24:43.101Z,14.80
2023-05-19T07:27:10.059Z,15.00
2023-05-19T07:29:36.744Z,15.20
2023-05-19T07:32:03.577Z,15.40
2023-05-19T07:34:30.348Z,15.60
2023-05-19T07:36:57.078Z,15.70
2023-05-19T07:39:26.369Z,15.80
2023-05-19T07:41:55.792Z,15.90
2023-05-19T07:44:22.628Z,16.00
2023-05-19T07:46:49.376Z,16.10
2023-05-19T07:49:16.070Z,16.20
2023-05-19T07:51:42.872Z,16.30
2023-05-19T07:54:09.683Z,16.40
2023-05-19T07:56:36.433Z,16.50
2023-05-19T07:59:03.580Z,16.50
2023-05-19T08:01:30.652Z,16.70
2023-05-19T08:03:57.862Z,17.20
2023-05-19T08:06:25.439Z,17.60
2023-05-19T08:08:52.409Z,17.90
2023-05-19T08:11:19.167Z,19.20
2023-05-19T08:13:48.870Z,21.00
2023-05-19T08:16:15.937Z,22.10
2023-05-19T08:18:42.763Z,22.60
2023-05-19T08:21:09.564Z,22.50
2023-05-19T08:23:37.455Z,22.60
2023-05-19T08:26:04.548Z,22.10
2023-05-19T08:28:31.527Z,21.20
2023-05-19T08:30:58.263Z,20.30
2023-05-19T08:33:25.093Z,19.60
2023-05-19T08:35:51.813Z,19.20
2023-05-19T08:38:18.572Z,19.20
2023-05-19T08:40:46.431Z,19.20
2023-05-19T08:43:13.192Z,19.20
2023-05-19T08:45:41.037Z,19.00
2023-05-19T08:48:07.837Z,18.80
2023-05-19T08:50:36.678Z,19.10
2023-05-19T08:53:21.045Z,19.70
2023-05-19T08:55:54.829Z,20.30
2023-05-19T08:58:21.831Z,20.60
2023-05-19T09:00:48.730Z,20.80
2023-05-19T09:03:22.714Z,20.80
2023-05-19T09:05:50.342Z,20.70
2023-05-19T09:08:17.165Z,20.50
2023-05-19T09:10:43.915Z,20.40
2023-05-19T09:13:10.711Z,20.30
2023-05-19T09:15:37.500Z,20.30
2023-05-19T09:18:14.100Z,20.30
2023-05-19T09:20:41.625Z,20.40
2023-05-19T09:23:08.608Z,20.60
2023-05-19T09:25:35.648Z,20.60
2023-05-19T09:28:02.688Z,20.50
2023-05-19T09:30:29.512Z,20.30
2023-05-19T09:32:56.313Z,20.30
2023-05-19T09:35:23.275Z,20.30
2023-05-19T09:37:50.047Z,20.60
2023-05-19T09:40:16.820Z,20.60
2023-05-19T09:42:44.403Z,20.80
2023-05-19T09:45:11.538Z,20.60
2023-05-19T09:47:38.710Z,20.50
2023-05-19T09:50:09.247Z,20.40
2023-05-19T09:52:37.074Z,20.30
2023-05-19T09:55:05.252Z,20.30
2023-05-19T09:57:38.158Z,20.40
2023-05-19T10:00:11.486Z,20.60
2023-05-19T10:02:39.759Z,20.80
2023-05-19T10:05:06.792Z,21.10
2023-05-19T10:07:33.542Z,21.40
2023-05-19T10:10:00.250Z,21.80
2023-05-19T10:12:26.993Z,22.00
2023-05-19T10:14:54.822Z,22.30
2023-05-19T10:17:21.681Z,22.60
2023-05-19T10:19:48.483Z,22.70
2023-05-19T10:22:15.172Z,22.60
2023-05-19T10:24:41.895Z,22.40
2023-05-19T10:27:10.253Z,22.20
2023-05-19T10:29:37.986Z,22.00
2023-05-19T10:32:06.765Z,21.80
2023-05-19T10:34:33.597Z,21.40
2023-05-19T10:37:03.404Z,21.40
2023-05-19T10:39:32.051Z,21.30
2023-05-19T10:42:10.960Z,21.30
2023-05-19T10:44:37.693Z,21.00
2023-05-19T10:47:06.423Z,21.20
2023-05-19T10:49:35.078Z,21.50
2023-05-19T10:52:01.853Z,21.50
2023-05-19T10:54:41.194Z,21.30
2023-05-19T10:57:08.334Z,21.00
2023-05-19T10:59:35.737Z,20.80
2023-05-19T11:02:08.756Z,20.50
2023-05-19T11:04:39.364Z,20.30
2023-05-19T11:07:06.235Z,20.00
2023-05-19T11:09:39.969Z,20.00
2023-05-19T11:12:07.302Z,20.20
2023-05-19T11:14:34.622Z,20.40
2023-05-19T11:17:01.525Z,20.50
2023-05-19T11:19:32.162Z,20.40
2023-05-19T11:22:11.828Z,20.40
2023-05-19T11:24:39.936Z,20.30
2023-05-19T11:27:24.897Z,20.40
2023-05-19T11:29:51.958Z,20.10
2023-05-19T11:32:19.990Z,20.00
2023-05-19T11:34:47.000Z,20.10
2023-05-19T11:37:13.861Z,20.00
2023-05-19T11:39:40.644Z,20.10
2023-05-19T11:42:13.577Z,20.20
2023-05-19T11:44:43.134Z,20.40
2023-05-19T11:47:09.858Z,20.50
2023-05-19T11:49:36.632Z,20.70
2023-05-19T11:52:03.902Z,20.40
2023-05-19T11:54:33.989Z,20.50
2023-05-19T11:57:02.396Z,20.60
2023-05-19T11:59:36.206Z,20.60
2023-05-19T12:02:24.992Z,20.50
2023-05-19T12:04:52.191Z,20.50
2023-05-19T12:07:19.626Z,20.70
2023-05-19T12:09:46.773Z,21.00
2023-05-19T12:12:17.088Z,20.90
2023-05-19T12:14:43.904Z,20.80
2023-05-19T12:17:12.117Z,20.50
2023-05-19T12:19:39.242Z,20.40
2023-05-19T12:22:06.563Z,20.60
2023-05-19T12:24:36.885Z,20.60
2023-05-19T12:27:07.562Z,20.60
2023-05-19T12:29:34.596Z,20.80
2023-05-19T12:32:02.004Z,20.70
2023-05-19T12:34:28.866Z,20.60
2023-05-19T12:36:55.613Z,20.40
2023-05-19T12:39:23.446Z,20.30
2023-05-19T12:41:50.231Z,20.40
2023-05-19T12:44:17.074Z,20.40
2023-05-19T12:46:44.087Z,20.30
2023-05-19T12:49:11.085Z,20.40
2023-05-19T12:51:37.842Z,20.40
2023-05-19T12:54:08.038Z,20.20
2023-05-19T12:56:34.825Z,20.00
2023-05-19T12:59:02.043Z,20.00
2023-05-19T13:01:29.271Z,20.20
2023-05-19T13:03:56.442Z,20.20
2023-05-19T13:06:23.463Z,20.10
2023-05-19T13:08:50.233Z,19.90
2023-05-19T13:11:16.946Z,19.80
2023-05-19T13:13:43.762Z,19.70
2023-05-19T13:16:10.675Z,19.70
2023-05-19T13:18:38.439Z,19.80
2023-05-19T13:21:05.915Z,19.90
2023-05-19T13:23:32.692Z,20.00
2023-05-19T13:25:59.404Z,20.30
2023-05-19T13:28:26.373Z,20.40
2023-05-19T13:30:53.199Z,20.50
2023-05-19T13:33:20.045Z,20.60
2023-05-19T13:35:46.763Z,20.70
2023-05-19T13:38:14.596Z,20.60
2023-05-19T13:40:41.391Z,20.60
2023-05-19T13:43:08.749Z,20.60
2023-05-19T13:45:35.774Z,20.50
2023-05-19T13:48:02.758Z,20.40
2023-05-19T13:50:29.645Z,20.40
2023-05-19T13:52:56.350Z,20.30
2023-05-19T13:55:23.595Z,20.20
2023-05-19T13:57:50.995Z,20.20
2023-05-19T14:00:18.321Z,20.20
2023-05-19T14:02:45.238Z,20.20
2023-05-19T14:05:12.150Z,20.40
2023-05-19T14:07:38.875Z,20.40
2023-05-19T14:10:06.863Z,20.40
2023-05-19T14:12:44.988Z,20.50
2023-05-19T14:15:19.131Z,20.50
2023-05-19T14:17:46.282Z,20.30
2023-05-19T14:20:13.227Z,20.10
2023-05-19T14:22:40.048Z,20.10
2023-05-19T14:25:07.110Z,20.20
2023-05-19T14:27:33.822Z,20.20
2023-05-19T14:30:00.650Z,20.10
2023-05-19T14:32:30.108Z,20.30
2023-05-19T14:34:57.171Z,20.40
2023-05-19T14:37:24.385Z,20.50
2023-05-19T14:39:51.095Z,20.50
2023-05-19T14:42:17.824Z,20.60
2023-05-19T14:44:44.714Z,20.60
2023-05-19T14:47:12.504Z,20.30
2023-05-19T14:49:39.473Z,20.20
2023-05-19T14:52:06.336Z,20.10
2023-05-19T14:54:33.876Z,20.00
2023-05-19T14:57:01.532Z,19.90
2023-05-19T14:59:29.606Z,19.80
2023-05-19T15:01:56.399Z,19.90
2023-05-19T15:04:23.335Z,20.10
2023-05-19T15:06:58.184Z,20.20
2023-05-19T15:09:36.134Z,20.20
2023-05-19T15:12:02.933Z,20.20
2023-05-19T15:14:31.022Z,20.20
2023-05-19T15:16:58.316Z,20.10
2023-05-19T15:19:25.313Z,20.20
2023-05-19T15:21:52.116Z,20.30
2023-05-19T15:24:19.229Z,20.50
2023-05-19T15:26:46.166Z,20.40
2023-05-19T15:29:12.955Z,20.50
2023-05-19T15:31:39.753Z,20.60
2023-05-19T15:34:06.619Z,20.50
2023-05-19T15:36:33.339Z,20.50
2023-05-19T15:39:00.060Z,20.50
2023-05-19T15:41:26.880Z,20.50
2023-05-19T15:43:53.737Z,20.40
2023-05-19T15:46:20.632Z,20.10
2023-05-19T15:48:47.531Z,20.00
2023-05-19T15:51:14.294Z,19.90
2023-05-19T15:53:41.115Z,19.90
2023-05-19T15:56:07.943Z,19.80
2023-05-19T15:58:34.688Z,19.80
2023-05-19T16:01:01.400Z,19.80
2023-05-19T16:03:28.243Z,19.70
2023-05-19T16:05:55.047Z,19.70
2023-05-19T16:08:21.865Z,19.70
2023-05-19T16:10:48.591Z,19.60
2023-05-19T16:13:15.395Z,19.40
2023-05-19T16:15:42.380Z,19.30
2023-05-19T16:18:09.308Z,19.30
2023-05-19T16:20:36.125Z,19.20
2023-05-19T16:23:03.289Z,19.20
2023-05-19T16:25:30.162Z,19.30
2023-05-19T16:27:57.001Z,19.40
2023-05-19T16:30:24.622Z,19.40
2023-05-19T16:32:53.185Z,19.30
2023-05-19T16:35:20.662Z,19.20
2023-05-19T16:37:47.436Z,19.20
2023-05-19T16:40:14.190Z,19.20
2023-05-19T16:42:41.134Z,19.20
2023-05-19T16:45:08.255Z,19.20
2023-05-19T16:47:35.624Z,19.20
2023-05-19T16:50:02.585Z,19.20
2023-05-19T16:52:29.337Z,19.30
2023-05-19T16:54:56.201Z,19.20
2023-05-19T16:57:22.977Z,19.20
2023-05-19T16:59:49.845Z,19.10
2023-05-19T17:02:16.632Z,19.00
2023-05-19T17:04:43.390Z,19.00
2023-05-19T17:07:12.069Z,18.90
2023-05-19T17:09:38.871Z,18.80
2023-05-19T17:12:05.737Z,18.70
2023-05-19T17:14:32.465Z,18.60
2023-05-19T17:16:59.398Z,18.50
2023-05-19T17:19:26.544Z,18.40
2023-05-19T17:21:53.434Z,18.40
2023-05-19T17:24:20.150Z,18.40
2023-05-19T17:26:46.869Z,18.50
2023-05-19T17:29:13.644Z,18.50
2023-05-19T17:31:40.657Z,18.50
2023-05-19T17:34:07.479Z,18.50
2023-05-19T17:36:34.161Z,18.50
2023-05-19T17:39:00.894Z,18.50
2023-05-19T17:41:27.697Z,18.40
2023-05-19T17:43:54.468Z,18.40
2023-05-19T17:46:21.327Z,18.40
2023-05-19T17:48:48.073Z,18.40
2023-05-19T17:51:14.864Z,18.40
2023-05-19T17:53:42.499Z,18.40
2023-05-19T17:56:11.332Z,18.40
2023-05-19T17:58:38.542Z,18.40
2023-05-19T18:01:05.377Z,18.50
2023-05-19T18:03:32.385Z,18.40
2023-05-19T18:05:59.294Z,18.40
2023-05-19T18:08:26.158Z,18.30
2023-05-19T18:10:52.913Z,18.30
2023-05-19T18:13:19.685Z,18.30
2023-05-19T18:15:46.769Z,18.20
2023-05-19T18:18:13.646Z,18.30
2023-05-19T18:20:44.178Z,18.30
2023-05-19T18:23:11.410Z,18.30
2023-05-19T18:25:38.205Z,18.40
2023-05-19T18:28:05.086Z,18.40
2023-05-19T18:30:32.287Z,18.30
2023-05-19T18:33:02.100Z,18.30
2023-05-19T18:35:28.935Z,18.30
2023-05-19T18:37:56.574Z,18.30
2023-05-19T18:40:23.414Z,18.30
2023-05-19T18:42:50.376Z,18.30
2023-05-19T18:45:17.122Z,18.30
2023-05-19T18:47:43.892Z,18.30
2023-05-19T18:50:10.863Z,18.20
2023-05-19T18:52:37.630Z,18.20
2023-05-19T18:55:04.599Z,18.20
2023-05-19T18:57:31.605Z,18.20
2023-05-19T18:59:58.670Z,18.20
2023-05-19T19:02:26.226Z,18.10
2023-05-19T19:04:53.061Z,18.10
2023-05-19T19:07:19.816Z,18.10
2023-05-19T19:09:46.495Z,18.20
2023-05-19T19:12:13.220Z,18.20
2023-05-19T19:14:40.060Z,18.20
2023-05-19T19:17:06.759Z,18.10
2023-05-19T19:19:33.588Z,18.20
2023-05-19T19:22:00.348Z,18.10
2023-05-19T19:24:28.562Z,18.10
2023-05-19T19:26:55.340Z,18.00
2023-05-19T19:29:22.291Z,18.00
2023-05-19T19:31:49.220Z,18.00
2023-05-19T19:34:16.081Z,18.00
2023-05-19T19:36:43.924Z,18.00
2023-05-19T19:39:10.668Z,18.00
2023-05-19T19:41:37.590Z,18.00
2023-05-19T19:44:04.549Z,18.00
2023-05-19T19:46:31.458Z,17.90
2023-05-19T19:49:00.327Z,18.00
2023-05-19T19:51:27.548Z,18.00
2023-05-19T19:53:54.410Z,18.00
2023-05-19T19:56:23.641Z,18.00
2023-05-19T19:58:50.789Z,18.00
2023-05-19T20:01:20.303Z,17.90
2023-05-19T20:03:47.339Z,18.00
2023-05-19T20:06:14.469Z,18.00
2023-05-19T20:08:41.478Z,18.00
2023-05-19T20:11:08.250Z,17.90
2023-05-19T20:13:35.072Z,17.90
2023-05-19T20:16:01.884Z,17.90
2023-05-19T20:18:29.929Z,17.90
2023-05-19T20:20:56.922Z,17.90
2023-05-19T20:23:23.638Z,17.90
2023-05-19T20:26:02.958Z,17.90
2023-05-19T20:28:37.406Z,17.90
2023-05-19T20:31:04.707Z,17.90
2023-05-19T20:33:31.805Z,17.90
2023-05-19T20:35:58.526Z,17.90
2023-05-19T20:38:25.377Z,17.80
2023-05-19T20:40:52.699Z,17.80
2023-05-19T20:43:19.443Z,17.70
2023-05-19T20:45:46.542Z,17.70
2023-05-19T20:48:13.452Z,17.70
2023-05-19T20:50:40.564Z,17.70
2023-05-19T20:53:07.541Z,17.60
2023-05-19T20:55:36.266Z,17.50
2023-05-19T20:58:03.179Z,17.50
2023-05-19T21:00:30.682Z,17.50
2023-05-19T21:02:57.877Z,17.50
2023-05-19T21:05:24.893Z,17.50
2023-05-19T21:07:51.682Z,17.50
2023-05-19T21:10:18.514Z,17.50
2023-05-19T21:12:46.454Z,17.50
2023-05-19T21:15:13.232Z,17.50
2023-05-19T21:17:40.012Z,17.50
2023-05-19T21:20:07.084Z,17.40
2023-05-19T21:22:35.642Z,17.40
2023-05-19T21:25:02.532Z,17.40
2023-05-19T21:27:29.412Z,17.30
2023-05-19T21:29:56.215Z,17.30
2023-05-19T21:32:22.947Z,17.30
2023-05-19T21:34:49.796Z,17.30
2023-05-19T21:37:17.661Z,17.20
2023-05-19T21:39:44.516Z,17.10
2023-05-19T21:42:11.397Z,17.00
2023-05-19T21:44:38.252Z,17.00
2023-05-19T21:47:05.126Z,16.90
2023-05-19T21:49:31.965Z,16.90
2023-05-19T21:51:58.747Z,16.80
2023-05-19T21:54:25.503Z,16.70
2023-05-19T21:56:52.280Z,16.70
2023-05-19T21:59:23.170Z,16.70
2023-05-19T22:01:50.199Z,16.70
2023-05-19T22:04:18.505Z,16.70
2023-05-19T22:06:45.652Z,16.60
2023-05-19T22:09:12.785Z,16.60
2023-05-19T22:11:39.746Z,16.50
2023-05-19T22:14:06.882Z,16.50
2023-05-19T22:16:33.895Z,16.50
2023-05-19T22:19:00.854Z,16.40
2023-05-19T22:21:27.721Z,16.40
2023-05-19T22:23:54.586Z,16.40
2023-05-19T22:26:22.139Z,16.40
2023-05-19T22:28:49.343Z,16.40
2023-05-19T22:31:16.442Z,16.40
2023-05-19T22:33:43.251Z,16.40
2023-05-19T22:36:11.101Z,16.30
2023-05-19T22:38:37.974Z,16.30
2023-05-19T22:41:04.928Z,16.20
2023-05-19T22:43:31.669Z,16.20
2023-05-19T22:45:58.431Z,16.20
2023-05-19T22:48:25.326Z,16.20
2023-05-19T22:50:52.060Z,16.00
2023-05-19T22:53:18.798Z,15.90
2023-05-19T22:55:45.653Z,15.80
2023-05-19T22:58:12.388Z,15.80
2023-05-19T23:00:39.222Z,15.80
2023-05-19T23:03:06.134Z,15.70
2023-05-19T23:05:33.102Z,15.70
2023-05-19T23:07:59.870Z,15.70
2023-05-19T23:10:26.581Z,15.70
2023-05-19T23:12:53.907Z,15.60
2023-05-19T23:15:20.688Z,15.50
2023-05-19T23:17:47.391Z,15.50
2023-05-19T23:20:14.204Z,15.50
2023-05-19T23:22:40.999Z,15.50
2023-05-19T23:25:08.018Z,15.50
2023-05-19T23:27:37.715Z,15.50
2023-05-19T23:30:04.656Z,15.50
2023-05-19T23:32:31.479Z,15.60
2023-05-19T23:34:58.209Z,15.60
2023-05-19T23:37:24.940Z,15.50
2023-05-19T23:39:51.672Z,15.50
2023-05-19T23:42:18.480Z,15.50
2023-05-19T23:44:45.575Z,15.50
2023-05-19T23:47:12.381Z,15.60
2023-05-19T23:49:39.156Z,15.60
2023-05-19T23:52:06.156Z,15.60
2023-05-19T23:54:32.925Z,15.70
2023-05-19T23:57:01.265Z,15.70
2023-05-19T23:59:28.062Z,15.80
